sensor_id;sensor_type;location;lat;lon;timestamp;P1;durP1;ratioP1;P2;durP2;ratioP2
10637;SDS011;47007;49.252;8.904;2023-04-12T00:00:12;1.95;;;1.05;;
10637;SDS011;47007;49.252;8.904;2023-04-12T00:00:54;2.92;;;1.55;;
10637;SDS011;47007;49.252;8.904;2023-04-12T00:01:36;3.70;;;1.30;;
10637;SDS011;47007;49.252;8.904;2023-04-12T00:02:18;2.50;;;1.52;;
10637;SDS011;47007;49.252;8.904;2023-04-12T00:03:04;1.88;;;1.00;;
10637;SDS011;47007;49.252;8.904;2023-04-12T00:03:48;2.60;;;1.20;;
10637;SDS011;47007;49.252;8.904;2023-04-12T00:04:31;2.20;;;1.48;;
10637;SDS011;47007;49.252;8.904;2023-04-12T00:05:15;3.63;;;1.63;;
10637;SDS011;47007;49.252;8.904;2023-04-12T00:05:56;2.42;;;1.65;;
10637;SDS011;47007;49.252;8.904;2023-04-12T00:06:40;2.22;;;1.40;;
10637;SDS011;47007;49.252;8.904;2023-04-12T00:07:23;1.95;;;1.30;;
10637;SDS011;47007;49.252;8.904;2023-04-12T00:08:05;3.70;;;1.52;;
10637;SDS011;47007;49.252;8.904;2023-04-12T00:08:47;2.58;;;1.35;;
10637;SDS011;47007;49.252;8.904;2023-04-12T00:09:28;4.60;;;1.63;;
10637;SDS011;47007;49.252;8.904;2023-04-12T00:10:13;2.95;;;1.42;;
10637;SDS011;47007;49.252;8.904;2023-04-12T00:10:55;3.70;;;1.58;;
10637;SDS011;47007;49.252;8.904;2023-04-12T00:11:37;2.10;;;1.35;;
10637;SDS011;47007;49.252;8.904;2023-04-12T00:12:18;5.45;;;2.00;;
10637;SDS011;47007;49.252;8.904;2023-04-12T00:13:01;3.13;;;1.70;;
10637;SDS011;47007;49.252;8.904;2023-04-12T00:13:42;2.72;;;1.52;;
10637;SDS011;47007;49.252;8.904;2023-04-12T00:14:24;3.38;;;1.55;;
10637;SDS011;47007;49.252;8.904;2023-04-12T00:15:06;3.45;;;1.55;;
10637;SDS011;47007;49.252;8.904;2023-04-12T00:15:49;2.30;;;1.10;;
10637;SDS011;47007;49.252;8.904;2023-04-12T00:16:31;3.47;;;1.20;;
10637;SDS011;47007;49.252;8.904;2023-04-12T00:17:13;1.92;;;1.17;;
10637;SDS011;47007;49.252;8.904;2023-04-12T00:17:54;3.10;;;1.10;;
10637;SDS011;47007;49.252;8.904;2023-04-12T00:18:39;2.63;;;1.27;;
10637;SDS011;47007;49.252;8.904;2023-04-12T00:19:22;3.38;;;1.60;;
10637;SDS011;47007;49.252;8.904;2023-04-12T00:20:08;2.97;;;1.35;;
10637;SDS011;47007;49.252;8.904;2023-04-12T00:20:56;2.40;;;1.60;;
10637;SDS011;47007;49.252;8.904;2023-04-12T00:21:38;2.08;;;1.10;;
10637;SDS011;47007;49.252;8.904;2023-04-12T00:22:19;3.40;;;1.42;;
10637;SDS011;47007;49.252;8.904;2023-04-12T00:23:01;3.83;;;1.50;;
10637;SDS011;47007;49.252;8.904;2023-04-12T00:23:44;4.53;;;1.83;;
10637;SDS011;47007;49.252;8.904;2023-04-12T00:24:27;4.40;;;1.77;;
10637;SDS011;47007;49.252;8.904;2023-04-12T00:25:09;3.30;;;1.63;;
10637;SDS011;47007;49.252;8.904;2023-04-12T00:25:51;3.85;;;1.33;;
10637;SDS011;47007;49.252;8.904;2023-04-12T00:26:33;4.72;;;1.48;;
10637;SDS011;47007;49.252;8.904;2023-04-12T00:27:15;1.90;;;1.17;;
10637;SDS011;47007;49.252;8.904;2023-04-12T00:27:56;3.35;;;1.35;;
10637;SDS011;47007;49.252;8.904;2023-04-12T00:28:38;2.67;;;1.15;;
10637;SDS011;47007;49.252;8.904;2023-04-12T00:29:20;4.00;;;1.40;;
10637;SDS011;47007;49.252;8.904;2023-04-12T00:30:02;2.90;;;1.33;;
10637;SDS011;47007;49.252;8.904;2023-04-12T00:30:44;1.95;;;1.00;;
10637;SDS011;47007;49.252;8.904;2023-04-12T00:31:26;3.17;;;1.30;;
10637;SDS011;47007;49.252;8.904;2023-04-12T00:32:08;3.00;;;1.13;;
10637;SDS011;47007;49.252;8.904;2023-04-12T00:32:50;5.45;;;1.48;;
10637;SDS011;47007;49.252;8.904;2023-04-12T00:33:32;3.28;;;1.42;;
10637;SDS011;47007;49.252;8.904;2023-04-12T00:34:14;2.08;;;1.45;;
10637;SDS011;47007;49.252;8.904;2023-04-12T00:34:57;5.22;;;1.77;;
10637;SDS011;47007;49.252;8.904;2023-04-12T00:35:39;3.63;;;1.85;;
10637;SDS011;47007;49.252;8.904;2023-04-12T00:36:21;4.07;;;2.25;;
10637;SDS011;47007;49.252;8.904;2023-04-12T00:37:02;4.07;;;1.95;;
10637;SDS011;47007;49.252;8.904;2023-04-12T00:37:44;6.25;;;2.85;;
10637;SDS011;47007;49.252;8.904;2023-04-12T00:38:26;2.80;;;1.85;;
10637;SDS011;47007;49.252;8.904;2023-04-12T00:39:08;3.20;;;2.03;;
10637;SDS011;47007;49.252;8.904;2023-04-12T00:39:50;5.38;;;3.00;;
10637;SDS011;47007;49.252;8.904;2023-04-12T00:40:32;5.13;;;2.55;;
10637;SDS011;47007;49.252;8.904;2023-04-12T00:41:13;3.03;;;1.10;;
10637;SDS011;47007;49.252;8.904;2023-04-12T00:41:55;3.88;;;1.70;;
10637;SDS011;47007;49.252;8.904;2023-04-12T00:42:37;4.53;;;1.92;;
10637;SDS011;47007;49.252;8.904;2023-04-12T00:43:19;4.05;;;1.45;;
10637;SDS011;47007;49.252;8.904;2023-04-12T00:44:01;3.28;;;1.17;;
10637;SDS011;47007;49.252;8.904;2023-04-12T00:44:42;4.10;;;2.53;;
10637;SDS011;47007;49.252;8.904;2023-04-12T00:45:25;3.67;;;1.63;;
10637;SDS011;47007;49.252;8.904;2023-04-12T00:46:07;2.20;;;1.00;;
10637;SDS011;47007;49.252;8.904;2023-04-12T00:46:50;2.97;;;1.33;;
10637;SDS011;47007;49.252;8.904;2023-04-12T00:47:33;4.68;;;3.13;;
10637;SDS011;47007;49.252;8.904;2023-04-12T00:48:19;4.18;;;2.40;;
10637;SDS011;47007;49.252;8.904;2023-04-12T00:49:01;7.80;;;6.03;;
10637;SDS011;47007;49.252;8.904;2023-04-12T00:49:43;7.30;;;5.03;;
10637;SDS011;47007;49.252;8.904;2023-04-12T00:50:25;8.10;;;5.13;;
10637;SDS011;47007;49.252;8.904;2023-04-12T00:51:07;9.38;;;6.72;;
10637;SDS011;47007;49.252;8.904;2023-04-12T00:51:49;9.80;;;6.13;;
10637;SDS011;47007;49.252;8.904;2023-04-12T00:52:32;12.82;;;7.75;;
10637;SDS011;47007;49.252;8.904;2023-04-12T00:53:18;9.40;;;5.20;;
10637;SDS011;47007;49.252;8.904;2023-04-12T00:53:59;16.60;;;11.77;;
10637;SDS011;47007;49.252;8.904;2023-04-12T00:54:41;9.40;;;6.57;;
10637;SDS011;47007;49.252;8.904;2023-04-12T00:55:24;7.45;;;4.90;;
10637;SDS011;47007;49.252;8.904;2023-04-12T00:56:06;8.85;;;4.63;;
10637;SDS011;47007;49.252;8.904;2023-04-12T00:56:48;9.48;;;6.65;;
10637;SDS011;47007;49.252;8.904;2023-04-12T00:57:33;14.48;;;9.90;;
10637;SDS011;47007;49.252;8.904;2023-04-12T00:58:17;10.88;;;6.95;;
10637;SDS011;47007;49.252;8.904;2023-04-12T00:58:59;7.03;;;4.45;;
10637;SDS011;47007;49.252;8.904;2023-04-12T00:59:42;6.78;;;3.90;;
10637;SDS011;47007;49.252;8.904;2023-04-12T01:00:24;10.48;;;6.60;;
10637;SDS011;47007;49.252;8.904;2023-04-12T01:01:06;13.30;;;8.65;;
10637;SDS011;47007;49.252;8.904;2023-04-12T01:01:47;6.85;;;5.13;;
10637;SDS011;47007;49.252;8.904;2023-04-12T01:02:31;7.35;;;5.38;;
10637;SDS011;47007;49.252;8.904;2023-04-12T01:03:15;7.78;;;5.20;;
10637;SDS011;47007;49.252;8.904;2023-04-12T01:04:03;5.85;;;4.00;;
10637;SDS011;47007;49.252;8.904;2023-04-12T01:04:45;6.18;;;4.78;;
10637;SDS011;47007;49.252;8.904;2023-04-12T01:05:31;11.77;;;9.18;;
10637;SDS011;47007;49.252;8.904;2023-04-12T01:06:40;7.80;;;5.07;;
10637;SDS011;47007;49.252;8.904;2023-04-12T01:09:42;17.85;;;15.35;;
10637;SDS011;47007;49.252;8.904;2023-04-12T01:10:32;18.33;;;16.42;;
10637;SDS011;47007;49.252;8.904;2023-04-12T01:13:58;8.10;;;5.78;;
10637;SDS011;47007;49.252;8.904;2023-04-12T01:15:52;8.98;;;7.10;;
10637;SDS011;47007;49.252;8.904;2023-04-12T01:16:49;5.82;;;3.78;;
10637;SDS011;47007;49.252;8.904;2023-04-12T01:17:37;9.75;;;8.75;;
10637;SDS011;47007;49.252;8.904;2023-04-12T01:18:31;11.75;;;8.98;;
10637;SDS011;47007;49.252;8.904;2023-04-12T01:20:39;5.10;;;3.95;;
10637;SDS011;47007;49.252;8.904;2023-04-12T01:22:30;6.15;;;5.18;;
10637;SDS011;47007;49.252;8.904;2023-04-12T01:23:33;9.20;;;6.75;;
10637;SDS011;47007;49.252;8.904;2023-04-12T01:24:36;3.33;;;2.67;;
10637;SDS011;47007;49.252;8.904;2023-04-12T01:26:30;3.30;;;0.90;;
10637;SDS011;47007;49.252;8.904;2023-04-12T01:28:01;3.22;;;0.95;;
10637;SDS011;47007;49.252;8.904;2023-04-12T01:28:40;3.28;;;0.77;;
10637;SDS011;47007;49.252;8.904;2023-04-12T01:29:24;1.75;;;0.70;;
10637;SDS011;47007;49.252;8.904;2023-04-12T01:30:11;0.70;;;0.50;;
10637;SDS011;47007;49.252;8.904;2023-04-12T01:30:56;1.83;;;0.73;;
10637;SDS011;47007;49.252;8.904;2023-04-12T01:31:43;1.55;;;0.80;;
10637;SDS011;47007;49.252;8.904;2023-04-12T01:32:36;2.00;;;0.60;;
10637;SDS011;47007;49.252;8.904;2023-04-12T01:33:19;3.15;;;1.00;;
10637;SDS011;47007;49.252;8.904;2023-04-12T01:34:02;1.45;;;0.68;;
10637;SDS011;47007;49.252;8.904;2023-04-12T01:34:45;2.78;;;0.77;;
10637;SDS011;47007;49.252;8.904;2023-04-12T01:35:28;1.63;;;0.65;;
10637;SDS011;47007;49.252;8.904;2023-04-12T01:36:15;0.85;;;0.65;;
10637;SDS011;47007;49.252;8.904;2023-04-12T01:37:01;2.28;;;0.90;;
10637;SDS011;47007;49.252;8.904;2023-04-12T01:37:44;2.35;;;0.75;;
10637;SDS011;47007;49.252;8.904;2023-04-12T01:38:26;1.65;;;0.73;;
10637;SDS011;47007;49.252;8.904;2023-04-12T01:39:09;2.38;;;1.08;;
10637;SDS011;47007;49.252;8.904;2023-04-12T01:39:51;2.47;;;1.13;;
10637;SDS011;47007;49.252;8.904;2023-04-12T01:40:32;3.30;;;1.00;;
10637;SDS011;47007;49.252;8.904;2023-04-12T01:41:16;1.98;;;0.88;;
10637;SDS011;47007;49.252;8.904;2023-04-12T01:41:58;2.70;;;0.80;;
10637;SDS011;47007;49.252;8.904;2023-04-12T01:42:40;2.42;;;0.68;;
10637;SDS011;47007;49.252;8.904;2023-04-12T01:43:21;2.30;;;1.00;;
10637;SDS011;47007;49.252;8.904;2023-04-12T01:44:03;2.50;;;0.77;;
10637;SDS011;47007;49.252;8.904;2023-04-12T01:44:45;3.35;;;0.82;;
10637;SDS011;47007;49.252;8.904;2023-04-12T01:45:27;3.67;;;0.90;;
10637;SDS011;47007;49.252;8.904;2023-04-12T01:46:09;2.63;;;0.98;;
10637;SDS011;47007;49.252;8.904;2023-04-12T01:46:52;4.10;;;1.00;;
10637;SDS011;47007;49.252;8.904;2023-04-12T01:47:34;2.50;;;0.82;;
10637;SDS011;47007;49.252;8.904;2023-04-12T01:48:16;1.88;;;0.80;;
10637;SDS011;47007;49.252;8.904;2023-04-12T01:48:58;4.10;;;1.00;;
10637;SDS011;47007;49.252;8.904;2023-04-12T01:49:46;1.90;;;0.70;;
10637;SDS011;47007;49.252;8.904;2023-04-12T01:51:19;1.38;;;0.70;;
10637;SDS011;47007;49.252;8.904;2023-04-12T01:52:09;2.80;;;0.98;;
10637;SDS011;47007;49.252;8.904;2023-04-12T01:53:00;1.55;;;0.70;;
10637;SDS011;47007;49.252;8.904;2023-04-12T01:54:43;2.28;;;1.00;;
10637;SDS011;47007;49.252;8.904;2023-04-12T01:55:25;1.65;;;0.75;;
10637;SDS011;47007;49.252;8.904;2023-04-12T01:56:11;1.67;;;0.57;;
10637;SDS011;47007;49.252;8.904;2023-04-12T01:56:58;3.00;;;0.93;;
10637;SDS011;47007;49.252;8.904;2023-04-12T01:57:42;1.27;;;0.75;;
10637;SDS011;47007;49.252;8.904;2023-04-12T01:58:26;3.15;;;0.90;;
10637;SDS011;47007;49.252;8.904;2023-04-12T01:59:13;1.92;;;0.85;;
10637;SDS011;47007;49.252;8.904;2023-04-12T01:59:56;4.72;;;1.00;;
10637;SDS011;47007;49.252;8.904;2023-04-12T02:00:40;2.10;;;0.80;;
10637;SDS011;47007;49.252;8.904;2023-04-12T02:01:24;2.05;;;0.70;;
10637;SDS011;47007;49.252;8.904;2023-04-12T02:02:06;4.13;;;1.00;;
10637;SDS011;47007;49.252;8.904;2023-04-12T02:02:49;1.55;;;0.90;;
10637;SDS011;47007;49.252;8.904;2023-04-12T02:03:33;2.85;;;0.80;;
10637;SDS011;47007;49.252;8.904;2023-04-12T02:04:15;1.23;;;0.60;;
10637;SDS011;47007;49.252;8.904;2023-04-12T02:04:59;2.13;;;0.60;;
10637;SDS011;47007;49.252;8.904;2023-04-12T02:05:42;2.53;;;0.77;;
10637;SDS011;47007;49.252;8.904;2023-04-12T02:06:24;1.30;;;0.50;;
10637;SDS011;47007;49.252;8.904;2023-04-12T02:07:07;3.13;;;0.63;;
10637;SDS011;47007;49.252;8.904;2023-04-12T02:07:49;1.30;;;0.65;;
10637;SDS011;47007;49.252;8.904;2023-04-12T02:08:32;1.92;;;0.77;;
10637;SDS011;47007;49.252;8.904;2023-04-12T02:09:13;2.35;;;0.90;;
10637;SDS011;47007;49.252;8.904;2023-04-12T02:09:56;2.08;;;0.73;;
10637;SDS011;47007;49.252;8.904;2023-04-12T02:10:38;1.17;;;0.60;;
10637;SDS011;47007;49.252;8.904;2023-04-12T02:11:20;1.80;;;0.60;;
10637;SDS011;47007;49.252;8.904;2023-04-12T02:12:02;2.08;;;0.75;;
10637;SDS011;47007;49.252;8.904;2023-04-12T02:12:44;1.95;;;0.70;;
10637;SDS011;47007;49.252;8.904;2023-04-12T02:13:25;1.70;;;0.50;;
10637;SDS011;47007;49.252;8.904;2023-04-12T02:14:07;1.15;;;0.60;;
10637;SDS011;47007;49.252;8.904;2023-04-12T02:14:50;2.70;;;0.70;;
10637;SDS011;47007;49.252;8.904;2023-04-12T02:15:32;1.67;;;0.63;;
10637;SDS011;47007;49.252;8.904;2023-04-12T02:16:15;3.30;;;0.88;;
10637;SDS011;47007;49.252;8.904;2023-04-12T02:16:59;1.52;;;0.88;;
10637;SDS011;47007;49.252;8.904;2023-04-12T02:17:45;2.50;;;0.80;;
10637;SDS011;47007;49.252;8.904;2023-04-12T02:18:27;1.55;;;0.90;;
10637;SDS011;47007;49.252;8.904;2023-04-12T02:19:11;2.00;;;0.75;;
10637;SDS011;47007;49.252;8.904;2023-04-12T02:19:55;3.05;;;0.80;;
10637;SDS011;47007;49.252;8.904;2023-04-12T02:20:38;1.75;;;0.70;;
10637;SDS011;47007;49.252;8.904;2023-04-12T02:21:21;2.15;;;0.60;;
10637;SDS011;47007;49.252;8.904;2023-04-12T02:22:03;1.52;;;0.50;;
10637;SDS011;47007;49.252;8.904;2023-04-12T02:22:46;2.50;;;0.70;;
10637;SDS011;47007;49.252;8.904;2023-04-12T02:23:27;1.98;;;0.82;;
10637;SDS011;47007;49.252;8.904;2023-04-12T02:24:09;2.45;;;0.70;;
10637;SDS011;47007;49.252;8.904;2023-04-12T02:24:52;1.30;;;1.00;;
10637;SDS011;47007;49.252;8.904;2023-04-12T02:25:33;2.03;;;0.80;;
10637;SDS011;47007;49.252;8.904;2023-04-12T02:26:16;2.45;;;0.65;;
10637;SDS011;47007;49.252;8.904;2023-04-12T02:27:01;2.42;;;0.80;;
10637;SDS011;47007;49.252;8.904;2023-04-12T02:27:46;1.05;;;0.70;;
10637;SDS011;47007;49.252;8.904;2023-04-12T02:28:29;2.22;;;0.77;;
10637;SDS011;47007;49.252;8.904;2023-04-12T02:29:11;1.60;;;0.70;;
10637;SDS011;47007;49.252;8.904;2023-04-12T02:29:53;0.80;;;0.73;;
10637;SDS011;47007;49.252;8.904;2023-04-12T02:30:35;2.92;;;0.80;;
10637;SDS011;47007;49.252;8.904;2023-04-12T02:31:17;5.93;;;0.90;;
10637;SDS011;47007;49.252;8.904;2023-04-12T02:32:01;2.83;;;0.60;;
10637;SDS011;47007;49.252;8.904;2023-04-12T02:32:44;3.45;;;0.80;;
10637;SDS011;47007;49.252;8.904;2023-04-12T02:33:39;1.35;;;0.70;;
10637;SDS011;47007;49.252;8.904;2023-04-12T02:34:23;2.55;;;0.90;;
10637;SDS011;47007;49.252;8.904;2023-04-12T02:35:12;2.70;;;0.80;;
10637;SDS011;47007;49.252;8.904;2023-04-12T02:35:59;1.55;;;0.60;;
10637;SDS011;47007;49.252;8.904;2023-04-12T02:36:47;2.47;;;0.60;;
10637;SDS011;47007;49.252;8.904;2023-04-12T02:37:30;1.80;;;0.70;;
10637;SDS011;47007;49.252;8.904;2023-04-12T02:38:13;2.22;;;0.75;;
10637;SDS011;47007;49.252;8.904;2023-04-12T02:38:55;1.98;;;0.80;;
10637;SDS011;47007;49.252;8.904;2023-04-12T02:39:38;2.70;;;0.85;;
10637;SDS011;47007;49.252;8.904;2023-04-12T02:40:22;3.88;;;0.82;;
10637;SDS011;47007;49.252;8.904;2023-04-12T02:41:03;1.83;;;0.77;;
10637;SDS011;47007;49.252;8.904;2023-04-12T02:41:47;1.60;;;0.60;;
10637;SDS011;47007;49.252;8.904;2023-04-12T02:42:29;1.90;;;0.80;;
10637;SDS011;47007;49.252;8.904;2023-04-12T02:43:11;2.88;;;0.90;;
10637;SDS011;47007;49.252;8.904;2023-04-12T02:43:57;2.83;;;0.80;;
10637;SDS011;47007;49.252;8.904;2023-04-12T02:44:39;1.95;;;0.80;;
10637;SDS011;47007;49.252;8.904;2023-04-12T02:45:26;1.13;;;0.75;;
10637;SDS011;47007;49.252;8.904;2023-04-12T02:46:09;1.25;;;0.60;;
10637;SDS011;47007;49.252;8.904;2023-04-12T02:47:00;2.50;;;0.73;;
10637;SDS011;47007;49.252;8.904;2023-04-12T02:47:43;1.17;;;0.50;;
10637;SDS011;47007;49.252;8.904;2023-04-12T02:48:25;1.92;;;0.98;;
10637;SDS011;47007;49.252;8.904;2023-04-12T02:49:07;3.38;;;1.27;;
10637;SDS011;47007;49.252;8.904;2023-04-12T02:49:54;3.40;;;1.30;;
10637;SDS011;47007;49.252;8.904;2023-04-12T02:50:36;2.95;;;2.17;;
10637;SDS011;47007;49.252;8.904;2023-04-12T02:51:28;3.00;;;1.05;;
10637;SDS011;47007;49.252;8.904;2023-04-12T02:52:09;3.00;;;1.30;;
10637;SDS011;47007;49.252;8.904;2023-04-12T02:53:09;3.15;;;0.90;;
10637;SDS011;47007;49.252;8.904;2023-04-12T02:53:51;2.28;;;0.90;;
10637;SDS011;47007;49.252;8.904;2023-04-12T02:54:36;1.15;;;0.70;;
10637;SDS011;47007;49.252;8.904;2023-04-12T02:55:18;2.25;;;0.70;;
10637;SDS011;47007;49.252;8.904;2023-04-12T02:56:00;3.00;;;0.88;;
10637;SDS011;47007;49.252;8.904;2023-04-12T02:56:47;1.38;;;0.82;;
10637;SDS011;47007;49.252;8.904;2023-04-12T02:57:50;2.05;;;1.17;;
10637;SDS011;47007;49.252;8.904;2023-04-12T02:58:32;1.80;;;1.15;;
10637;SDS011;47007;49.252;8.904;2023-04-12T02:59:14;2.42;;;0.90;;
10637;SDS011;47007;49.252;8.904;2023-04-12T03:00:16;2.40;;;1.05;;
10637;SDS011;47007;49.252;8.904;2023-04-12T03:01:03;2.60;;;2.05;;
10637;SDS011;47007;49.252;8.904;2023-04-12T03:02:05;3.88;;;2.20;;
10637;SDS011;47007;49.252;8.904;2023-04-12T03:02:47;2.78;;;1.63;;
10637;SDS011;47007;49.252;8.904;2023-04-12T03:03:36;3.83;;;2.47;;
10637;SDS011;47007;49.252;8.904;2023-04-12T03:04:37;4.50;;;2.13;;
10637;SDS011;47007;49.252;8.904;2023-04-12T03:05:25;4.00;;;3.50;;
10637;SDS011;47007;49.252;8.904;2023-04-12T03:06:07;4.30;;;3.08;;
10637;SDS011;47007;49.252;8.904;2023-04-12T03:06:50;4.25;;;2.17;;
10637;SDS011;47007;49.252;8.904;2023-04-12T03:07:42;3.05;;;2.67;;
10637;SDS011;47007;49.252;8.904;2023-04-12T03:08:24;2.45;;;1.63;;
10637;SDS011;47007;49.252;8.904;2023-04-12T03:09:09;3.08;;;1.35;;
10637;SDS011;47007;49.252;8.904;2023-04-12T03:09:51;1.55;;;0.95;;
10637;SDS011;47007;49.252;8.904;2023-04-12T03:10:36;2.55;;;1.20;;
10637;SDS011;47007;49.252;8.904;2023-04-12T03:11:17;2.00;;;0.90;;
10637;SDS011;47007;49.252;8.904;2023-04-12T03:12:00;2.05;;;0.98;;
10637;SDS011;47007;49.252;8.904;2023-04-12T03:12:44;1.65;;;0.80;;
10637;SDS011;47007;49.252;8.904;2023-04-12T03:13:31;2.33;;;0.90;;
10637;SDS011;47007;49.252;8.904;2023-04-12T03:14:13;2.47;;;1.02;;
10637;SDS011;47007;49.252;8.904;2023-04-12T03:14:55;2.10;;;0.90;;
10637;SDS011;47007;49.252;8.904;2023-04-12T03:15:39;2.00;;;0.90;;
10637;SDS011;47007;49.252;8.904;2023-04-12T03:16:24;1.35;;;0.68;;
10637;SDS011;47007;49.252;8.904;2023-04-12T03:17:18;2.20;;;0.98;;
10637;SDS011;47007;49.252;8.904;2023-04-12T03:18:00;2.53;;;0.80;;
10637;SDS011;47007;49.252;8.904;2023-04-12T03:18:45;1.48;;;0.80;;
10637;SDS011;47007;49.252;8.904;2023-04-12T03:19:27;2.25;;;0.80;;
10637;SDS011;47007;49.252;8.904;2023-04-12T03:20:10;2.30;;;1.50;;
10637;SDS011;47007;49.252;8.904;2023-04-12T03:21:00;3.08;;;1.35;;
10637;SDS011;47007;49.252;8.904;2023-04-12T03:21:43;1.90;;;1.67;;
10637;SDS011;47007;49.252;8.904;2023-04-12T03:22:25;2.88;;;1.60;;
10637;SDS011;47007;49.252;8.904;2023-04-12T03:23:11;2.33;;;1.10;;
10637;SDS011;47007;49.252;8.904;2023-04-12T03:23:58;1.38;;;0.95;;
10637;SDS011;47007;49.252;8.904;2023-04-12T03:24:40;1.45;;;0.70;;
10637;SDS011;47007;49.252;8.904;2023-04-12T03:25:24;1.70;;;0.85;;
10637;SDS011;47007;49.252;8.904;2023-04-12T03:26:10;1.27;;;0.73;;
10637;SDS011;47007;49.252;8.904;2023-04-12T03:26:53;1.85;;;1.15;;
10637;SDS011;47007;49.252;8.904;2023-04-12T03:27:38;1.15;;;0.85;;
10637;SDS011;47007;49.252;8.904;2023-04-12T03:28:20;1.80;;;0.80;;
10637;SDS011;47007;49.252;8.904;2023-04-12T03:29:05;2.17;;;1.00;;
10637;SDS011;47007;49.252;8.904;2023-04-12T03:29:52;3.45;;;1.23;;
10637;SDS011;47007;49.252;8.904;2023-04-12T03:30:36;2.83;;;0.93;;
10637;SDS011;47007;49.252;8.904;2023-04-12T03:31:18;2.50;;;1.10;;
10637;SDS011;47007;49.252;8.904;2023-04-12T03:32:02;2.65;;;0.77;;
10637;SDS011;47007;49.252;8.904;2023-04-12T03:32:44;1.20;;;0.88;;
10637;SDS011;47007;49.252;8.904;2023-04-12T03:33:27;1.20;;;0.68;;
10637;SDS011;47007;49.252;8.904;2023-04-12T03:34:14;1.52;;;0.88;;
10637;SDS011;47007;49.252;8.904;2023-04-12T03:35:01;2.55;;;1.08;;
10637;SDS011;47007;49.252;8.904;2023-04-12T03:35:43;2.95;;;1.25;;
10637;SDS011;47007;49.252;8.904;2023-04-12T03:36:28;2.25;;;1.10;;
10637;SDS011;47007;49.252;8.904;2023-04-12T03:37:17;1.63;;;1.08;;
10637;SDS011;47007;49.252;8.904;2023-04-12T03:38:00;2.90;;;0.88;;
10637;SDS011;47007;49.252;8.904;2023-04-12T03:38:43;3.53;;;1.33;;
10637;SDS011;47007;49.252;8.904;2023-04-12T03:39:25;3.30;;;1.40;;
10637;SDS011;47007;49.252;8.904;2023-04-12T03:40:07;2.80;;;1.08;;
10637;SDS011;47007;49.252;8.904;2023-04-12T03:40:52;2.42;;;0.90;;
10637;SDS011;47007;49.252;8.904;2023-04-12T03:41:41;2.95;;;1.10;;
10637;SDS011;47007;49.252;8.904;2023-04-12T03:42:23;2.50;;;1.20;;
10637;SDS011;47007;49.252;8.904;2023-04-12T03:43:24;2.03;;;0.95;;
10637;SDS011;47007;49.252;8.904;2023-04-12T03:44:06;2.25;;;1.00;;
10637;SDS011;47007;49.252;8.904;2023-04-12T03:44:49;1.88;;;1.15;;
10637;SDS011;47007;49.252;8.904;2023-04-12T03:45:34;2.78;;;1.10;;
10637;SDS011;47007;49.252;8.904;2023-04-12T03:46:17;1.75;;;1.05;;
10637;SDS011;47007;49.252;8.904;2023-04-12T03:47:07;2.50;;;1.13;;
10637;SDS011;47007;49.252;8.904;2023-04-12T03:47:49;2.33;;;0.98;;
10637;SDS011;47007;49.252;8.904;2023-04-12T03:48:33;1.98;;;0.75;;
10637;SDS011;47007;49.252;8.904;2023-04-12T03:49:15;2.00;;;0.98;;
10637;SDS011;47007;49.252;8.904;2023-04-12T03:50:03;1.98;;;1.00;;
10637;SDS011;47007;49.252;8.904;2023-04-12T03:50:57;1.88;;;0.88;;
10637;SDS011;47007;49.252;8.904;2023-04-12T03:51:43;2.40;;;0.88;;
10637;SDS011;47007;49.252;8.904;2023-04-12T03:52:25;3.05;;;1.17;;
10637;SDS011;47007;49.252;8.904;2023-04-12T03:53:07;2.55;;;1.20;;
10637;SDS011;47007;49.252;8.904;2023-04-12T03:53:49;1.27;;;0.90;;
10637;SDS011;47007;49.252;8.904;2023-04-12T03:54:31;1.98;;;0.90;;
10637;SDS011;47007;49.252;8.904;2023-04-12T03:55:18;1.60;;;0.93;;
10637;SDS011;47007;49.252;8.904;2023-04-12T03:56:03;3.50;;;0.95;;
10637;SDS011;47007;49.252;8.904;2023-04-12T03:56:45;1.90;;;0.90;;
10637;SDS011;47007;49.252;8.904;2023-04-12T03:57:35;2.22;;;0.73;;
10637;SDS011;47007;49.252;8.904;2023-04-12T03:58:19;3.53;;;1.13;;
10637;SDS011;47007;49.252;8.904;2023-04-12T03:59:02;3.05;;;0.90;;
10637;SDS011;47007;49.252;8.904;2023-04-12T03:59:44;3.00;;;1.20;;
10637;SDS011;47007;49.252;8.904;2023-04-12T04:00:26;2.13;;;0.80;;
10637;SDS011;47007;49.252;8.904;2023-04-12T04:01:21;1.80;;;0.98;;
10637;SDS011;47007;49.252;8.904;2023-04-12T04:02:05;1.85;;;0.95;;
10637;SDS011;47007;49.252;8.904;2023-04-12T04:02:50;2.60;;;0.95;;
10637;SDS011;47007;49.252;8.904;2023-04-12T04:03:33;1.38;;;1.08;;
10637;SDS011;47007;49.252;8.904;2023-04-12T04:04:23;3.22;;;1.15;;
10637;SDS011;47007;49.252;8.904;2023-04-12T04:05:10;2.38;;;1.10;;
10637;SDS011;47007;49.252;8.904;2023-04-12T04:05:54;2.65;;;1.40;;
10637;SDS011;47007;49.252;8.904;2023-04-12T04:06:36;1.95;;;1.20;;
10637;SDS011;47007;49.252;8.904;2023-04-12T04:07:19;1.60;;;1.30;;
10637;SDS011;47007;49.252;8.904;2023-04-12T04:08:01;3.03;;;1.38;;
10637;SDS011;47007;49.252;8.904;2023-04-12T04:08:51;1.95;;;1.17;;
10637;SDS011;47007;49.252;8.904;2023-04-12T04:09:33;3.22;;;1.20;;
10637;SDS011;47007;49.252;8.904;2023-04-12T04:10:14;2.20;;;1.13;;
10637;SDS011;47007;49.252;8.904;2023-04-12T04:10:59;1.92;;;1.20;;
10637;SDS011;47007;49.252;8.904;2023-04-12T04:11:46;1.65;;;0.95;;
10637;SDS011;47007;49.252;8.904;2023-04-12T04:12:30;2.80;;;1.05;;
10637;SDS011;47007;49.252;8.904;2023-04-12T04:13:12;2.63;;;0.88;;
10637;SDS011;47007;49.252;8.904;2023-04-12T04:13:54;3.15;;;1.02;;
10637;SDS011;47007;49.252;8.904;2023-04-12T04:14:36;2.78;;;1.10;;
10637;SDS011;47007;49.252;8.904;2023-04-12T04:15:20;1.73;;;0.90;;
10637;SDS011;47007;49.252;8.904;2023-04-12T04:16:03;1.10;;;0.88;;
10637;SDS011;47007;49.252;8.904;2023-04-12T04:16:47;3.15;;;1.25;;
10637;SDS011;47007;49.252;8.904;2023-04-12T04:17:29;1.95;;;0.90;;
10637;SDS011;47007;49.252;8.904;2023-04-12T04:18:11;2.63;;;0.88;;
10637;SDS011;47007;49.252;8.904;2023-04-12T04:18:53;2.10;;;1.00;;
10637;SDS011;47007;49.252;8.904;2023-04-12T04:19:37;3.05;;;1.13;;
10637;SDS011;47007;49.252;8.904;2023-04-12T04:20:19;1.48;;;1.08;;
10637;SDS011;47007;49.252;8.904;2023-04-12T04:21:03;1.50;;;1.05;;
10637;SDS011;47007;49.252;8.904;2023-04-12T04:21:47;2.92;;;1.42;;
10637;SDS011;47007;49.252;8.904;2023-04-12T04:22:30;2.40;;;1.17;;
10637;SDS011;47007;49.252;8.904;2023-04-12T04:23:15;2.42;;;1.27;;
10637;SDS011;47007;49.252;8.904;2023-04-12T04:23:58;2.03;;;0.95;;
10637;SDS011;47007;49.252;8.904;2023-04-12T04:24:44;4.03;;;1.48;;
10637;SDS011;47007;49.252;8.904;2023-04-12T04:25:28;3.15;;;1.40;;
10637;SDS011;47007;49.252;8.904;2023-04-12T04:26:14;3.47;;;1.50;;
10637;SDS011;47007;49.252;8.904;2023-04-12T04:27:03;4.28;;;1.85;;
10637;SDS011;47007;49.252;8.904;2023-04-12T04:27:45;1.95;;;1.40;;
10637;SDS011;47007;49.252;8.904;2023-04-12T04:28:27;2.53;;;1.30;;
10637;SDS011;47007;49.252;8.904;2023-04-12T04:29:08;3.25;;;1.70;;
10637;SDS011;47007;49.252;8.904;2023-04-12T04:29:52;3.33;;;1.50;;
10637;SDS011;47007;49.252;8.904;2023-04-12T04:30:35;3.25;;;1.45;;
10637;SDS011;47007;49.252;8.904;2023-04-12T04:31:21;2.30;;;1.52;;
10637;SDS011;47007;49.252;8.904;2023-04-12T04:32:06;3.15;;;1.70;;
10637;SDS011;47007;49.252;8.904;2023-04-12T04:32:48;3.70;;;1.70;;
10637;SDS011;47007;49.252;8.904;2023-04-12T04:33:33;3.08;;;1.98;;
10637;SDS011;47007;49.252;8.904;2023-04-12T04:34:16;3.10;;;2.00;;
10637;SDS011;47007;49.252;8.904;2023-04-12T04:35:01;2.97;;;2.15;;
10637;SDS011;47007;49.252;8.904;2023-04-12T04:35:54;3.90;;;2.47;;
10637;SDS011;47007;49.252;8.904;2023-04-12T04:36:41;3.85;;;2.63;;
10637;SDS011;47007;49.252;8.904;2023-04-12T04:37:24;3.13;;;2.38;;
10637;SDS011;47007;49.252;8.904;2023-04-12T04:38:06;2.33;;;2.08;;
10637;SDS011;47007;49.252;8.904;2023-04-12T04:38:49;2.33;;;2.10;;